Time;durP1;ratioP1;P1;durP2;ratioP2;P2;SDS_P1;SDS_P2;PMS_P1;PMS_P2;Temp;Humidity;BMP_temperature;BMP_pressure;BME280_temperature;BME280_humidity;BME280_pressure;Samples;Min_cycle;Max_cycle;Signal;HPM_P1;HPM_P2
2022/09/05 10:37:59;;;;;;;;;;;14.30;68.30;;;;;;6113270;23;19959;-70
2022/09/05 10:40:26;;;;;;;;;;;14.40;67.20;;;;;;6115430;23;19932;-73
2022/09/05 10:42:57;;;;;;;;;;;14.30;67.40;;;;;;6094042;23;20325;-72
2022/09/05 10:45:29;;;;;;;;;;;14.30;68.10;;;;;;6120551;23;19909;-73
2022/09/05 10:47:56;;;;;;;;;;;14.30;67.70;;;;;;6121766;23;19916;-71
2022/09/05 10:50:32;;;;;;;;;;;14.30;68.90;;;;;;6120992;23;20468;-71
2022/09/05 10:53:08;;;;;;;;;;;14.30;70.40;;;;;;6120790;23;20344;-70
2022/09/05 10:55:38;;;;;;;;;;;14.40;72.70;;;;;;6121377;23;19909;-72
2022/09/05 10:58:23;;;;;;;;;;;14.30;72.90;;;;;;6121729;23;20325;-73
2022/09/05 11:00:53;;;;;;;;;;;14.30;72.90;;;;;;6121819;23;19956;-72
2022/09/05 11:03:27;;;;;;;;;;;14.20;73.20;;;;;;6121576;23;19909;-73
2022/09/05 11:05:56;;;;;;;;;;;14.20;73.10;;;;;;6095284;23;19956;-71
2022/09/05 11:08:30;;;;;;;;;;;14.20;72.50;;;;;;6095683;23;19908;-74
2022/09/05 11:10:59;;;;;;;;;;;14.20;72.80;;;;;;6121489;23;20256;-73
2022/09/05 11:13:48;;;;;;;;;;;14.10;73.00;;;;;;6121415;23;19991;-73
2022/09/05 11:16:21;;;;;;;;;;;14.00;71.80;;;;;;6121551;23;19904;-73
2022/09/05 11:18:53;;;;;;;;;;;14.00;72.30;;;;;;6120744;23;19909;-74
2022/09/05 11:21:27;;;;;;;;;;;14.00;72.70;;;;;;6095485;23;20285;-72
2022/09/05 11:23:55;;;;;;;;;;;14.00;72.80;;;;;;6096077;23;19964;-72
2022/09/05 11:26:55;;;;;;;;;;;14.00;73.40;;;;;;6096307;23;19912;-72
2022/09/05 11:29:23;;;;;;;;;;;13.90;73.80;;;;;;6056837;23;19913;-71
2022/09/05 11:31:49;;;;;;;;;;;13.90;74.00;;;;;;6092836;23;20198;-72
2022/09/05 11:34:34;;;;;;;;;;;13.80;74.10;;;;;;6124768;23;19940;-73
2022/09/05 11:37:00;;;;;;;;;;;13.80;74.30;;;;;;6124525;23;19933;-73
2022/09/05 11:48:57;;;;;;;;;;;13.70;75.10;;;;;;6117243;23;19932;-73
2022/09/05 11:51:31;;;;;;;;;;;13.60;75.30;;;;;;6095389;23;19926;-73
2022/09/05 11:54:07;;;;;;;;;;;13.60;75.50;;;;;;6071473;23;19909;-73
2022/09/05 11:56:54;;;;;;;;;;;13.60;75.80;;;;;;6097008;23;19910;-73
2022/09/05 11:59:26;;;;;;;;;;;13.60;76.00;;;;;;6072122;23;19909;-73
2022/09/05 12:01:58;;;;;;;;;;;13.60;75.90;;;;;;6072043;23;20314;-73
2022/09/05 12:04:48;;;;;;;;;;;13.60;76.00;;;;;;6097178;23;20237;-73
2022/09/05 12:07:14;;;;;;;;;;;13.50;76.20;;;;;;6042929;23;19980;-73
2022/09/05 12:09:45;;;;;;;;;;;13.50;76.10;;;;;;6097306;23;19912;-73
2022/09/05 12:12:30;;;;;;;;;;;13.40;76.20;;;;;;6096993;23;19918;-73
2022/09/05 12:14:57;;;;;;;;;;;13.40;75.90;;;;;;6097194;23;19905;-73
2022/09/05 12:17:45;;;;;;;;;;;13.40;76.00;;;;;;6097309;23;19913;-73
2022/09/05 12:20:14;;;;;;;;;;;13.40;77.10;;;;;;6097479;23;19980;-73
2022/09/05 12:23:01;;;;;;;;;;;13.30;77.70;;;;;;6072195;23;19910;-73
2022/09/05 12:25:46;;;;;;;;;;;13.30;78.80;;;;;;6071530;23;19905;-73
2022/09/05 12:28:16;;;;;;;;;;;13.20;79.10;;;;;;6097257;23;20397;-73
2022/09/05 12:30:44;;;;;;;;;;;13.20;79.60;;;;;;6072436;23;19913;-73
2022/09/05 12:33:10;;;;;;;;;;;13.10;79.80;;;;;;6072327;23;19914;-73
2022/09/05 12:35:38;;;;;;;;;;;13.10;80.50;;;;;;6097234;23;19905;-73
2022/09/05 12:38:14;;;;;;;;;;;13.00;80.20;;;;;;6071694;23;19912;-73
2022/09/05 12:40:51;;;;;;;;;;;13.00;80.30;;;;;;6097376;23;20313;-73
2022/09/05 12:43:18;;;;;;;;;;;12.90;80.40;;;;;;6072014;23;19905;-73
2022/09/05 12:45:48;;;;;;;;;;;12.90;80.60;;;;;;6097024;23;19980;-73
2022/09/05 12:48:24;;;;;;;;;;;12.90;80.80;;;;;;6097315;23;19905;-73
2022/09/05 12:50:53;;;;;;;;;;;12.80;80.60;;;;;;6119309;23;19917;-73
2022/09/05 12:53:20;;;;;;;;;;;12.80;80.40;;;;;;6126249;23;19905;-73
2022/09/05 12:55:51;;;;;;;;;;;12.80;80.60;;;;;;6100310;23;19984;-73
2022/09/05 12:58:20;;;;;;;;;;;12.80;80.70;;;;;;6076683;23;20257;-73
2022/09/05 13:00:47;;;;;;;;;;;12.80;80.80;;;;;;6100201;23;19911;-73
2022/09/05 13:03:26;;;;;;;;;;;12.80;81.00;;;;;;6100240;23;19905;-73
2022/09/05 13:05:57;;;;;;;;;;;12.80;80.80;;;;;;6100744;23;20186;-73
2022/09/05 13:08:24;;;;;;;;;;;12.70;80.90;;;;;;6100312;23;19913;-73
2022/09/05 13:10:54;;;;;;;;;;;12.70;81.00;;;;;;6100313;23;20324;-73
2022/09/05 13:13:22;;;;;;;;;;;12.70;81.20;;;;;;6100552;23;20235;-73
2022/09/05 13:15:51;;;;;;;;;;;12.70;80.90;;;;;;6100567;23;19912;-73
2022/09/05 13:18:19;;;;;;;;;;;12.70;81.00;;;;;;6100800;23;19980;-73
2022/09/05 13:21:07;;;;;;;;;;;12.70;81.30;;;;;;6126160;23;19912;-73
2022/09/05 13:23:37;;;;;;;;;;;12.70;80.90;;;;;;6106548;23;19911;-73
2022/09/05 13:26:13;;;;;;;;;;;12.70;81.20;;;;;;6100815;23;19909;-73
2022/09/05 13:28:58;;;;;;;;;;;12.70;80.90;;;;;;6126034;23;19912;-73
2022/09/05 13:31:40;;;;;;;;;;;12.70;81.00;;;;;;6099791;23;19913;-73
2022/09/05 13:34:11;;;;;;;;;;;12.70;81.60;;;;;;6126031;23;19905;-73
2022/09/05 13:36:41;;;;;;;;;;;12.70;81.60;;;;;;6100111;23;19980;-73
2022/09/05 13:39:10;;;;;;;;;;;12.70;81.80;;;;;;6100103;23;20074;-73
2022/09/05 13:41:42;;;;;;;;;;;12.70;82.10;;;;;;6075900;23;19905;-73
2022/09/05 13:44:09;;;;;;;;;;;12.70;82.10;;;;;;6100360;23;20432;-73
2022/09/05 13:46:37;;;;;;;;;;;12.60;82.30;;;;;;6099881;23;19909;-73
2022/09/05 13:49:10;;;;;;;;;;;12.60;82.60;;;;;;6125574;23;19955;-73
2022/09/05 13:51:43;;;;;;;;;;;12.60;82.70;;;;;;6100122;23;19972;-73
2022/09/05 13:54:10;;;;;;;;;;;12.60;83.00;;;;;;6100370;23;19943;-73
2022/09/05 13:56:41;;;;;;;;;;;12.60;83.00;;;;;;6124055;23;19909;-73
2022/09/05 13:59:12;;;;;;;;;;;12.60;83.20;;;;;;6075549;23;20240;-73
2022/09/05 14:01:54;;;;;;;;;;;12.50;83.30;;;;;;6099862;23;19905;-73
2022/09/05 14:04:24;;;;;;;;;;;12.50;83.40;;;;;;6125829;23;19909;-73
2022/09/05 14:07:00;;;;;;;;;;;12.50;83.50;;;;;;6125561;23;19924;-73
2022/09/05 14:56:45;;;;;;;;;;;12.40;84.20;;;;;;6123352;23;19923;-72
2022/09/05 14:59:31;;;;;;;;;;;12.30;84.00;;;;;;6099393;23;19954;-72
2022/09/05 15:02:03;;;;;;;;;;;12.30;84.00;;;;;;6123465;23;20230;-72
2022/09/05 15:04:37;;;;;;;;;;;12.30;84.10;;;;;;6099767;23;19904;-72
2022/09/05 15:07:08;;;;;;;;;;;12.30;83.90;;;;;;6099792;23;19912;-72
2022/09/05 15:09:35;;;;;;;;;;;12.20;83.90;;;;;;6124783;23;19940;-72
2022/09/05 15:12:14;;;;;;;;;;;12.20;84.00;;;;;;6124823;23;19920;-72
2022/09/05 15:14:43;;;;;;;;;;;12.20;83.80;;;;;;6100843;23;19983;-72
2022/09/05 15:17:10;;;;;;;;;;;12.20;83.70;;;;;;6075607;23;20329;-72
2022/09/05 15:19:49;;;;;;;;;;;12.10;83.50;;;;;;6099604;23;19912;-72
2022/09/05 15:22:23;;;;;;;;;;;12.10;83.40;;;;;;6125162;23;19909;-72
2022/09/05 15:25:09;;;;;;;;;;;12.00;83.20;;;;;;6099483;23;20340;-73
2022/09/05 15:27:36;;;;;;;;;;;12.00;83.00;;;;;;6124890;23;20252;-73
2022/09/05 15:30:05;;;;;;;;;;;12.00;82.90;;;;;;6126839;23;19959;-72
2022/09/05 15:32:36;;;;;;;;;;;11.90;83.10;;;;;;6126845;23;19916;-72
2022/09/05 15:35:03;;;;;;;;;;;11.90;82.90;;;;;;6127189;23;19913;-73
2022/09/05 15:37:32;;;;;;;;;;;11.90;82.80;;;;;;6126777;23;19913;-72
2022/09/05 15:40:01;;;;;;;;;;;11.80;82.70;;;;;;6101217;23;19904;-72
2022/09/05 15:42:51;;;;;;;;;;;11.80;82.80;;;;;;6127226;23;19909;-72
2022/09/05 15:45:22;;;;;;;;;;;11.80;82.70;;;;;;6112009;23;19912;-72
2022/09/05 15:48:02;;;;;;;;;;;11.70;82.50;;;;;;6101442;23;20240;-72
2022/09/05 15:50:29;;;;;;;;;;;11.70;82.50;;;;;;6101088;23;19909;-72
2022/09/05 15:52:55;;;;;;;;;;;11.70;82.20;;;;;;6101249;23;19908;-72
2022/09/05 15:55:23;;;;;;;;;;;11.70;82.00;;;;;;6126229;23;19967;-72
2022/09/05 15:57:51;;;;;;;;;;;11.70;81.70;;;;;;6126520;23;19909;-72
2022/09/05 16:00:33;;;;;;;;;;;11.60;81.50;;;;;;6100889;23;19916;-73
2022/09/05 16:03:04;;;;;;;;;;;11.60;81.70;;;;;;6126719;23;19987;-72
2022/09/05 16:05:30;;;;;;;;;;;11.50;81.60;;;;;;6101080;23;19905;-72
2022/09/05 16:08:06;;;;;;;;;;;11.50;81.70;;;;;;6127016;23;20279;-72
2022/09/05 16:10:33;;;;;;;;;;;11.50;81.70;;;;;;6126215;23;19963;-72
2022/09/05 16:13:05;;;;;;;;;;;11.40;81.70;;;;;;6127021;23;19909;-72
2022/09/05 16:15:51;;;;;;;;;;;11.40;82.10;;;;;;6100906;23;19980;-72
2022/09/05 16:18:21;;;;;;;;;;;11.30;82.10;;;;;;6113893;23;19905;-72
2022/09/05 16:21:07;;;;;;;;;;;11.30;82.30;;;;;;6126546;23;20213;-72
2022/09/05 16:23:37;;;;;;;;;;;11.30;82.60;;;;;;6125678;23;20197;-72
2022/09/05 16:26:06;;;;;;;;;;;11.20;82.50;;;;;;6126632;23;19984;-72
2022/09/05 16:28:37;;;;;;;;;;;11.20;82.60;;;;;;6125987;23;20699;-73
2022/09/05 16:31:12;;;;;;;;;;;11.20;82.50;;;;;;6100478;23;19913;-73
2022/09/05 16:33:39;;;;;;;;;;;11.20;83.10;;;;;;6100837;23;19936;-72
2022/09/05 16:36:10;;;;;;;;;;;11.20;82.70;;;;;;6126961;23;19909;-72
2022/09/05 16:38:46;;;;;;;;;;;11.20;82.80;;;;;;6100508;23;19928;-72
2022/09/05 16:41:15;;;;;;;;;;;11.20;82.60;;;;;;6126240;23;19932;-72
2022/09/05 16:43:43;;;;;;;;;;;11.10;83.00;;;;;;6126306;23;19912;-72
2022/09/05 16:46:14;;;;;;;;;;;11.10;82.70;;;;;;6101019;23;19913;-72
2022/09/05 16:48:47;;;;;;;;;;;11.00;83.00;;;;;;6100802;23;20341;-72
2022/09/05 16:51:13;;;;;;;;;;;11.00;83.10;;;;;;6126272;23;20312;-72
2022/09/05 16:53:41;;;;;;;;;;;10.90;82.80;;;;;;6126201;23;19932;-72
2022/09/05 16:56:18;;;;;;;;;;;11.00;82.80;;;;;;6099810;23;20285;-72
2022/09/05 16:58:44;;;;;;;;;;;10.90;83.20;;;;;;6126812;23;19932;-72
2022/09/05 17:01:20;;;;;;;;;;;11.00;83.10;;;;;;6126425;23;19928;-72
2022/09/05 17:03:54;;;;;;;;;;;10.90;83.10;;;;;;6127046;23;19913;-73
2022/09/05 17:06:28;;;;;;;;;;;10.90;83.20;;;;;;6099364;23;19913;-73
2022/09/05 22:37:55;;;;;;;;;;;12.80;78.70;;;;;;6118433;23;20023;-70
2022/09/05 22:40:22;;;;;;;;;;;12.80;78.80;;;;;;6094278;23;20017;-70
2022/09/05 22:42:54;;;;;;;;;;;12.90;79.40;;;;;;6095882;23;19913;-69
2022/09/05 22:45:21;;;;;;;;;;;12.90;79.30;;;;;;6095635;23;19905;-69
2022/09/05 22:47:47;;;;;;;;;;;13.00;79.30;;;;;;6093980;23;19949;-70
2022/09/05 22:50:14;;;;;;;;;;;13.00;79.10;;;;;;6095439;23;19905;-69
2022/09/05 22:52:40;;;;;;;;;;;13.10;79.20;;;;;;6095254;23;20294;-69
2022/09/05 22:55:07;;;;;;;;;;;13.10;79.20;;;;;;6095257;23;19912;-70
2022/09/05 22:57:34;;;;;;;;;;;13.20;78.80;;;;;;6095181;23;19911;-69
2022/09/05 23:00:00;;;;;;;;;;;13.20;78.90;;;;;;6095751;23;19905;-69
2022/09/05 23:02:27;;;;;;;;;;;13.20;78.90;;;;;;6094347;23;19989;-69
2022/09/05 23:04:54;;;;;;;;;;;13.30;79.00;;;;;;6095752;23;19905;-70
2022/09/05 23:07:20;;;;;;;;;;;13.30;78.80;;;;;;6095826;23;19940;-69
2022/09/05 23:09:47;;;;;;;;;;;13.40;78.80;;;;;;6096020;23;19905;-70
2022/09/05 23:12:13;;;;;;;;;;;13.40;78.60;;;;;;6095631;23;19965;-69
2022/09/05 23:14:40;;;;;;;;;;;13.50;78.80;;;;;;6095632;23;19905;-69
2022/09/05 23:17:07;;;;;;;;;;;13.50;78.20;;;;;;6095548;23;19983;-69
2022/09/05 23:19:33;;;;;;;;;;;13.60;78.50;;;;;;6095129;23;19910;-69
2022/09/05 23:22:00;;;;;;;;;;;13.70;78.50;;;;;;6095765;23;19909;-69
2022/09/05 23:24:27;;;;;;;;;;;13.70;78.50;;;;;;6095544;23;19933;-68
2022/09/05 23:26:54;;;;;;;;;;;13.80;78.50;;;;;;6095952;23;19912;-68
2022/09/05 23:29:21;;;;;;;;;;;13.80;78.00;;;;;;6095757;23;20289;-68
2022/09/05 23:31:47;;;;;;;;;;;13.80;78.00;;;;;;6095793;23;19989;-68
2022/09/05 23:34:14;;;;;;;;;;;13.80;78.00;;;;;;6095394;23;20202;-68
2022/09/05 23:36:40;;;;;;;;;;;13.90;77.60;;;;;;6095310;23;19905;-69
